航空気象通報

ウインドサーファーのための航空気象通報による風予報です。

2/26-2/28の航空気象通報

2014年02月26日 23時15分06秒 | TAF

羽田空港
TAF RJTT 261105Z 2612/2718 16010KT 9999 FEW030
BECMG 2618/2620 30004KT
BECMG 2700/2703 19018KT
TEMPO 2703/2712 19020G30KT
日本時間26日21時-27日03時:160度から10ノットの風
03-05時:風が変化
05-09時:300度から4ノットの風
09-12時:風が変化
12時-28日03時:190度から18ノットの風
但し、27日12-21日の間:ときどき190度から20ノット、突風30ノット

静岡空港
TAF RJNS 261105Z 2612/2718 34004KT 9999 FEW020 BKN040
BECMG 2700/2703 16006KT
TEMPO 2700/2703 4000 -RA BR
TEMPO 2703/2712 3000 -RA BR FEW004 BKN008
BECMG 2712/2715 3000 -SHRA BR FEW004 BKN008
TEMPO 2712/2718 1200 SHRA BR FEW004 BKN005
日本時間26日21時-27日09時:340度から4ノットの風
09-12時:風が変化
12時-28日03時:160度から6ノットの風

27日21-24時の後、
但し、27日09-21時の間:ときどき

福岡空港
TAF RJFF 261122Z 2612/2718 15010KT 8000 -SHRA FEW010 SCT015 BKN025
TEMPO 2612/2618 4000 -RA BR
BECMG 2700/2703 32008KT
TEMPO 2706/2712 4000 -SHRA BR FEW005 SCT007 BKN009
日本時間26日21時-27日09時:150度から10ノットの風
09-12時:風が変化
12時-28日03時:320度から8ノットの風

那覇空港
TAF AMD ROAH 261237Z 2612/2718 21012KT 9999 FEW015 BKN040
TEMPO 2612/2616 4000 SHRA
BECMG 2620/2622 32008KT
TEMPO 2621/2623 4000 SHRA SCT010 BKN020 FEW025CB
日本時間26日21時-27日05時:210度から12ノットの風
05-07時:風が変化
07時-28日03時:320度から8ノットの風

但し、26日21時-27日01時の間:ときどき
但し、27日06-08時の間:ときどき

石垣空港
TAF ROIG 261108Z 2612/2718 20005KT 9999 FEW015 BKN045
BECMG 2614/2616 03009KT
日本時間26日21-23時:200度から5ノットの風
23時-27日01時:風が変化
01時-28日03時:030度から9ノットの風

マウイのカフルイ空港
PHOG 261140Z 2612/2712 14004KT P6SM SCT025 BKN035
FM262000 36013G20KT P6SM SCT030 BKN045
FM270600 03010G15KT P6SM VCSH SCT020 BKN035 AMD LTD TO WX VIS AND WIND TIL 261600
ハワイ時間26日02-10時:140度から4ノットの風
10-20時:360度から13ノット、突風20ノット
20時-27日02時:030度から10ノット、突風15ノット

サイパン空港
PGSN 261125Z 2612/2712 05020G35KT P6SM VCSH SCT020 SCT050 BKN120
マリアナ時間26日22時-27日22時:050度から20ノット、突風25ノット

コメント
この記事をはてなブックマークに追加

2/25-2/27の航空気象通報

2014年02月25日 21時53分48秒 | TAF
羽田空港
TAF RJTT 251105Z 2512/2618 35010KT 9999 FEW030
BECMG 2600/2603 16010KT
日本時間25日21時-26日09時:350度から10ノットの風
09-12時:風が変化
12時-27日03時:160度から10ノットの風


静岡空港
TAF RJNS 251105Z 2512/2618 32006KT 9999 FEW030
BECMG 2600/2603 16008KT
BECMG 2609/2612 34004KT
日本時間25日21時-26日09時:320度から6ノットの風
09-12時:風が変化
12-18時:160度から8ノットの風
18-21時:風が変化
21時-27日03時:340度から4ノットの風


福岡空港
TAF RJFF 251115Z 2512/2618 16005KT 6000 FEW020
TEMPO 2515/2524 4500 BR
BECMG 2612/2615 15015KT
日本時間25日21時-26日21時:160度から5ノットの風
21-24時:風が変化
27日00-03時:150度から15ノットの風


那覇空港
TAF ROAH 251105Z 2512/2618 14010KT 9999 FEW015 SCT035
日本時間25日21時-27日03時:140度から10ノットの風


石垣空港
TAF ROIG 251108Z 2512/2618 15008KT 9999 FEW020 SCT045
BECMG 2615/2618 11004KT
日本時間25日21時-26日24時:150度から8ノットの風
27日00-03時:風が変化
03時:110度から4ノットの風


マウイのカフルイ空港
PHOG 251138Z 2512/2612 15005KT P6SM FEW035
FM252000 01013KT P6SM SCT030 SCT045
FM260600 03005KT P6SM FEW035 AMD LTD TO WX VIS AND WIND TIL 251600
ハワイ時間25日02-10時:150度から5ノットの風
10-20時:010度から13ノットの風
20時-26日02時:030度から5ノットの風


サイパン空港
PGSN 251120Z 2512/2612 05014KT P6SM VCSH SCT018 SCT050
FM252300 05018G28KT P6SM VCSH SCT020 SCT050 BKN120
FM260900 04015KT P6SM VCSH SCT020CB SCT050 BKN120
マリアナ時間25日22時-26日09時:050度から14ノットの風

09-19時:050度から18ノット、突風28ノット
19時-26日02時:040度から15ノット
コメント
この記事をはてなブックマークに追加

2/24-2/26の航空気象通報

2014年02月24日 21時39分38秒 | TAF
羽田空港
TAF RJTT 241105Z 2412/2518 36010KT 9999 FEW020 BKN030
BECMG 2503/2506 12006KT
BECMG 2509/2512 34008KT
日本時間24日21時-25日12時:360度から10ノットの風
12-15時:風が変化
15-18時:120度から6ノットの風
18-21時:風が変化
21時-26日03時:340度から8ノットの風


静岡空港
TAF RJNS 241105Z 2412/2518 28008KT 9999 FEW030
TEMPO 2500/2506 28018G28KT
日本時間24日21時-26日03時:280度から8ノットの風
但し、25日09-15時の間:ときどき280度から18ノット、突風28ノット


福岡空港
TAF RJFF 241110Z 2412/2518 12005KT CAVOK
BECMG 2500/2503 36006KT
BECMG 2512/2515 12003KT
日本時間24日21時-25日09時:120度から5ノットの風
09-12時:風が変化
12-21時:360度から6ノットの風
21-24時:風が変化
26日00-03時:120度から3ノットの風


那覇空港
TAF ROAH 241105Z 2412/2518 10005KT 9999 FEW030
日本時間24日21時-26日03時:100度から5ノットの風


石垣空港
TAF ROIG 241106Z 2412/2518 10010KT 9999 FEW030
日本時間24日21時-26日03時:100度から10ノットの風


マウイのカフルイ空港
PHOG 241120Z 2412/2512 06007KT P6SM VCSH FEW015 SCT020 SCT040
FM242000 02013KT P6SM SCT040
FM250500 02007KT P6SM BKN040 AMD LTD TO WX VIS AND WIND TIL 241600
ハワイ時間24日02-10時:060度から7ノットの風
10-19時:020度から13ノットの風

19時-25日02時:020度から7ノットの風


サイパン空港
PGSN 241120Z 2412/2512 06013KT P6SM VCSH SCT018 SCT040 SCT120
FM250100 07015G22KT P6SM VCSH SCT020 SCT050 SCT120
FM250900 07013KT P6SM VCSH SCT018 SCT040 SCT120
マリアナ時間24日22時-25日11時:060度から13ノットの風
11-19日070度から15ノット、突風の風
19-22時:070度から13ノットの風
コメント
この記事をはてなブックマークに追加

2/23-2/25の航空気象通報

2014年02月23日 21時33分13秒 | TAF

羽田空港
TAF RJTT 231105Z 2312/2418 02012KT 9999 FEW020 BKN040
BECMG 2403/2406 08006KT
BECMG 2409/2412 35010KT
日本時間23日21時-24日12時:020度から12ノットの風
12-15時:風が変化
15-18時:080度から6ノットの風
18-21時:風が変化
21時-25日03時:350度から10ノットの風

静岡空港
TAF RJNS 231107Z 2312/2418 36004KT 9999 FEW020 SCT040
BECMG 2400/2403 20008KT
BECMG 2409/2412 30008KT
日本時間23日21時-24日09時:360度から4ノットの風
09-12時:風が変化
12-18時:200度から8ノットの風
18-21時:風が変化
21時-24日03時:300度から8ノットの風

福岡空港
TAF RJFF 231106Z 2312/2418 13003KT 9999 FEW035
BECMG 2400/2403 32006KT
BECMG 2412/2415 15005KT
日本時間23日21時-24日09時:130度から3ノットの風
09-12時:風が変化
12-21時:320度から6ノットの風
21-24時:風が変化
24日00-03時:150度から5ノットの風

那覇空港
TAF ROAH 231105Z 2312/2418 08004KT 9999 FEW030
BECMG 2400/2403 10009KT
日本時間23日21時-24日09時:080度から4ノットの風
09-12時:風が変化
12時-25日03時:100度から9ノットの風

石垣空港
TAF ROIG 231108Z 2312/2418 08012KT 9999 FEW035
日本時間23日21時-25日03時:080度から12ノットの風

マウイのカフルイ空港
PHOG 231135Z 2312/2412 VRB06KT P6SM FEW035
FM232000 03011KT P6SM FEW030 SCT050
FM240400 VRB06KT P6SM SCT050 AMD LTD TO WX VIS AND WIND TIL 231600
ハワイ時間23日02-10時:風向不定6ノットの風
10-18時:030度から11ノットの風
18時-24日02時:風向不定6ノットの風

サイパン空港
PGSN 231121Z 2312/2412 05011KT P6SM VCSH SCT020 BKN060
マリアナ時間23日22時-24日22時:050度から11ノットの風

コメント
この記事をはてなブックマークに追加

2/22-2/24の航空気象通報

2014年02月22日 21時20分22秒 | TAF

羽田空港
TAF RJTT 221105Z 2212/2318 01010KT 9999 FEW030 BKN050
BECMG 2303/2306 12005KT
BECMG 2309/2312 01010KT
日本時間22日21時-23日12時:010度から10ノットの風
12-15時:風が変化
15-18時:120度から5ノットの風
18-21時:風が変化
21時-24日03時:010度から10ノットの風

静岡空港
TAF RJNS 221107Z 2212/2318 35004KT 9999 FEW020 SCT030
BECMG 2300/2303 20008KT
BECMG 2309/2312 36005KT
日本時間22日21時-23日09時:350度から4ノットの風
09-12時:風が変化
12-18時:200度から8ノットの風
18-21時:風が変化
21時-24日03時:360度から5ノットの風

福岡空港
TAF RJFF 221116Z 2212/2318 12004KT 9999 FEW040
BECMG 2300/2303 34007KT
BECMG 2312/2315 12003KT
日本時間22日21時-23日09時:120度から4ノットの風
09-12時:風が変化
12-21時:340度から7ノットの風
21-24時:風が変化
24日00-03時:120度から3ノットの風

那覇空港
TAF ROAH 221107Z 2212/2318 06010KT 9999 FEW030
日本時間22日21時-24日03時:060度から10ノットの風

石垣空港
TAF ROIG 221111Z 2212/2318 08012KT 9999 FEW035 SCT045
日本時間22日21時-24日03時:080度から12ノットの風

マウイのカフルイ空港
PHOG 221120Z 2212/2312 10006KT P6SM BKN150
FM222000 03008KT P6SM SCT030 BKN050
FM230800 05008KT P6SM SCT050 AMD LTD TO WX VIS AND WIND TIL 221600
ハワイ時間22日02-10時:100度から6ノットの風
10-22時:030度から8ノットの風
22時-24日02時:050度から8ノットの風

サイパン空港
PGSN 221134Z 2212/2312 06012G18KT P6SM VCSH FEW020 BKN080
マリアナ時間22日22時-23日22時:060度から12ノット、突風18ノット

コメント
この記事をはてなブックマークに追加